F/v_l'omerta — FHXG — position and weather

sailwx.info

Track history (hours):
 
Tides and Currents Weather Stations Pressure Air Temp Water Temp Dewpoint Dewpoint Depression Visibility Wind Speed Wind Dir Waves Ship Positions

F/v_l'omerta

Last reported at 2014-Nov-24 04:32 UTC. Time now 2014-Nov-25 22:07 UTC.
Position N 46°26' W 002°17'.

Length 18 m.

Type: Fishing. MMSI: 227903000.

Date/timePositionNaut miles runAvg speedWind from/ knotsBaromVisibWave heightAir tempDewpointWater temp
2014-Nov-24 04:32N 46°26' W 002°17'9 9.1
2014-Nov-24 03:33N 46°27' W 002°04'9 9.2
2014-Nov-24 02:33N 46°28' W 001°51'3 3.4
2014-Nov-24 01:33N 46°30' W 001°47'0 0.0
2014-Nov-24 00:33N 46°30' W 001°47'4 4.4
2014-Nov-23 23:33N 46°29' W 001°53'9 9.2
2014-Nov-23 22:33N 46°30' W 002°07'8 7.0
2014-Nov-23 21:24N 46°30' W 002°19'6 0.6
2014-Nov-23 11:14N 46°33' W 002°26'  
2014-Nov-21 07:12N 46°39' W 002°36'3 3.7
2014-Nov-21 06:32N 46°37' W 002°35'6 4.7
2014-Nov-21 05:17N 46°33' W 002°28'8 9.8
2014-Nov-21 04:30N 46°32' W 002°17'9 9.8
2014-Nov-21 03:33N 46°30' W 002°04'10 9.8
2014-Nov-21 02:33N 46°29' W 001°50'2 2.3
2014-Nov-21 01:33N 46°30' W 001°47'0 0.0
2014-Nov-21 00:33N 46°30' W 001°47'0 0.0
2014-Nov-20 23:33N 46°30' W 001°47'0 0.1
2014-Nov-20 22:33N 46°30' W 001°47'4 3.6
2014-Nov-20 21:33N 46°28' W 001°51'9 9.1
2014-Nov-20 20:33N 46°26' W 002°04'12 0.3
2014-Nov-19 03:16N 46°32' W 002°20'7 9.7
2014-Nov-19 02:33N 46°31' W 002°10'10 9.6
2014-Nov-19 01:33N 46°29' W 001°57'6 6.3
2014-Nov-19 00:33N 46°30' W 001°47'0 0.0
2014-Nov-18 23:33N 46°30' W 001°47'0 0.2
2014-Nov-18 22:33N 46°30' W 001°47'4 4.1
2014-Nov-18 21:33N 46°28' W 001°53'10 9.8
2014-Nov-18 20:33N 46°29' W 002°07'9 9.0
2014-Nov-18 19:31N 46°29' W 002°21'  
2014-Nov-16 11:28N 46°37' W 002°19'6 3.1
2014-Nov-16 09:33N 46°31' W 002°18'3 3.3
2014-Nov-16 08:33N 46°29' W 002°14'9 9.0
2014-Nov-16 07:33N 46°29' W 002°01'9 9.2
2014-Nov-16 06:33N 46°28' W 001°48'2 1.6
2014-Nov-16 05:33N 46°30' W 001°47'0 0.0
2014-Nov-16 04:33N 46°30' W 001°47'0 0.0
2014-Nov-16 03:33N 46°30' W 001°47'0 0.0
2014-Nov-16 02:33N 46°30' W 001°47'0 0.0
2014-Nov-16 01:33N 46°30' W 001°47'0 0.0
2014-Nov-16 00:33N 46°30' W 001°47'0 0.0
2014-Nov-15 23:33N 46°30' W 001°47'0 0.0
2014-Nov-15 22:33N 46°30' W 001°47'0 0.0
2014-Nov-15 21:33N 46°30' W 001°47'0 0.0
2014-Nov-15 20:33N 46°30' W 001°47'0 0.0
2014-Nov-15 19:33N 46°30' W 001°47'0 0.0
2014-Nov-15 18:33N 46°30' W 001°47'0 0.0
2014-Nov-15 17:33N 46°30' W 001°47'0 0.0
2014-Nov-15 16:33N 46°30' W 001°47'0 0.0
2014-Nov-15 15:33N 46°30' W 001°47'0 0.0
2014-Nov-15 14:33N 46°30' W 001°47'0 0.0
2014-Nov-15 13:33N 46°30' W 001°47'0 0.0
2014-Nov-15 12:33N 46°30' W 001°47'0 0.0
2014-Nov-15 11:33N 46°30' W 001°47'0 0.0
2014-Nov-15 01:33N 46°30' W 001°47'0 0.0
2014-Nov-15 00:33N 46°30' W 001°47'0 0.0
2014-Nov-14 23:33N 46°30' W 001°47'0 0.0
2014-Nov-14 22:33N 46°30' W 001°47'0 0.0
2014-Nov-14 21:33N 46°30' W 001°47'0 0.0
2014-Nov-14 20:33N 46°30' W 001°47'0 0.0
2014-Nov-14 19:33N 46°30' W 001°47'0 0.0
2014-Nov-14 18:33N 46°30' W 001°47'0 0.0
2014-Nov-14 17:33N 46°30' W 001°47'0 0.0
2014-Nov-14 16:33N 46°30' W 001°47'0 0.0
2014-Nov-14 15:33N 46°30' W 001°47'0 0.0
2014-Nov-14 14:33N 46°30' W 001°47'0 0.0
2014-Nov-14 12:33N 46°30' W 001°47'0 0.0
2014-Nov-14 11:33N 46°30' W 001°47'0 0.0
2014-Nov-14 10:33N 46°30' W 001°47'0 0.0
2014-Nov-14 09:33N 46°30' W 001°47'0 0.0
2014-Nov-14 08:33N 46°30' W 001°47'0 0.0
2014-Nov-14 07:33N 46°30' W 001°47'0 0.0
2014-Nov-14 06:33N 46°30' W 001°47'0 0.0
2014-Nov-14 05:33N 46°30' W 001°47'0 0.0
2014-Nov-14 04:33N 46°30' W 001°47'  
Track history (hours):
 
Tides and Currents Weather Stations Pressure Air Temp Water Temp Dewpoint Dewpoint Depression Visibility Wind Speed Wind Dir Waves Ship Positions

F/v_l'omerta

Last reported at 2014-Nov-24 04:32 UTC. Time now 2014-Nov-25 22:07 UTC.
Position N 46°26' W 002°17'.

Length 18 m.

Type: Fishing. MMSI: 227903000.

Date/timePositionNaut miles runAvg speedWind from/ knotsBaromVisibWave heightAir tempDewpointWater temp
2014-Nov-24 04:32N 46°26' W 002°17'9 9.1
2014-Nov-24 03:33N 46°27' W 002°04'9 9.2
2014-Nov-24 02:33N 46°28' W 001°51'3 3.4
2014-Nov-24 01:33N 46°30' W 001°47'0 0.0
2014-Nov-24 00:33N 46°30' W 001°47'4 4.4
2014-Nov-23 23:33N 46°29' W 001°53'9 9.2
2014-Nov-23 22:33N 46°30' W 002°07'8 7.0
2014-Nov-23 21:24N 46°30' W 002°19'6 0.6
2014-Nov-23 11:14N 46°33' W 002°26'  
2014-Nov-21 07:12N 46°39' W 002°36'3 3.7
2014-Nov-21 06:32N 46°37' W 002°35'6 4.7
2014-Nov-21 05:17N 46°33' W 002°28'8 9.8
2014-Nov-21 04:30N 46°32' W 002°17'9 9.8
2014-Nov-21 03:33N 46°30' W 002°04'10 9.8
2014-Nov-21 02:33N 46°29' W 001°50'2 2.3
2014-Nov-21 01:33N 46°30' W 001°47'0 0.0
2014-Nov-21 00:33N 46°30' W 001°47'0 0.0
2014-Nov-20 23:33N 46°30' W 001°47'0 0.1
2014-Nov-20 22:33N 46°30' W 001°47'4 3.6
2014-Nov-20 21:33N 46°28' W 001°51'9 9.1
2014-Nov-20 20:33N 46°26' W 002°04'12 0.3
2014-Nov-19 03:16N 46°32' W 002°20'7 9.7
2014-Nov-19 02:33N 46°31' W 002°10'10 9.6
2014-Nov-19 01:33N 46°29' W 001°57'6 6.3
2014-Nov-19 00:33N 46°30' W 001°47'0 0.0
2014-Nov-18 23:33N 46°30' W 001°47'0 0.2
2014-Nov-18 22:33N 46°30' W 001°47'4 4.1
2014-Nov-18 21:33N 46°28' W 001°53'10 9.8
2014-Nov-18 20:33N 46°29' W 002°07'9 9.0
2014-Nov-18 19:31N 46°29' W 002°21'  
2014-Nov-16 11:28N 46°37' W 002°19'6 3.1
2014-Nov-16 09:33N 46°31' W 002°18'3 3.3
2014-Nov-16 08:33N 46°29' W 002°14'9 9.0
2014-Nov-16 07:33N 46°29' W 002°01'9 9.2
2014-Nov-16 06:33N 46°28' W 001°48'2 1.6
2014-Nov-16 05:33N 46°30' W 001°47'0 0.0
2014-Nov-16 04:33N 46°30' W 001°47'0 0.0
2014-Nov-16 03:33N 46°30' W 001°47'0 0.0
2014-Nov-16 02:33N 46°30' W 001°47'0 0.0
2014-Nov-16 01:33N 46°30' W 001°47'0 0.0
2014-Nov-16 00:33N 46°30' W 001°47'0 0.0
2014-Nov-15 23:33N 46°30' W 001°47'0 0.0
2014-Nov-15 22:33N 46°30' W 001°47'0 0.0
2014-Nov-15 21:33N 46°30' W 001°47'0 0.0
2014-Nov-15 20:33N 46°30' W 001°47'0 0.0
2014-Nov-15 19:33N 46°30' W 001°47'0 0.0
2014-Nov-15 18:33N 46°30' W 001°47'0 0.0
2014-Nov-15 17:33N 46°30' W 001°47'0 0.0
2014-Nov-15 16:33N 46°30' W 001°47'0 0.0
2014-Nov-15 15:33N 46°30' W 001°47'0 0.0
2014-Nov-15 14:33N 46°30' W 001°47'0 0.0
2014-Nov-15 13:33N 46°30' W 001°47'0 0.0
2014-Nov-15 12:33N 46°30' W 001°47'0 0.0
2014-Nov-15 11:33N 46°30' W 001°47'0 0.0
2014-Nov-15 01:33N 46°30' W 001°47'0 0.0
2014-Nov-15 00:33N 46°30' W 001°47'0 0.0
2014-Nov-14 23:33N 46°30' W 001°47'0 0.0
2014-Nov-14 22:33N 46°30' W 001°47'0 0.0
2014-Nov-14 21:33N 46°30' W 001°47'0 0.0
2014-Nov-14 20:33N 46°30' W 001°47'0 0.0
2014-Nov-14 19:33N 46°30' W 001°47'0 0.0
2014-Nov-14 18:33N 46°30' W 001°47'0 0.0
2014-Nov-14 17:33N 46°30' W 001°47'0 0.0
2014-Nov-14 16:33N 46°30' W 001°47'0 0.0
2014-Nov-14 15:33N 46°30' W 001°47'0 0.0
2014-Nov-14 14:33N 46°30' W 001°47'0 0.0
2014-Nov-14 12:33N 46°30' W 001°47'0 0.0
2014-Nov-14 11:33N 46°30' W 001°47'0 0.0
2014-Nov-14 10:33N 46°30' W 001°47'0 0.0
2014-Nov-14 09:33N 46°30' W 001°47'0 0.0
2014-Nov-14 08:33N 46°30' W 001°47'0 0.0
2014-Nov-14 07:33N 46°30' W 001°47'0 0.0
2014-Nov-14 06:33N 46°30' W 001°47'0 0.0
2014-Nov-14 05:33N 46°30' W 001°47'0 0.0
2014-Nov-14 04:33N 46°30' W 001°47'  

Dump ship's entire track history